Time;durP1;ratioP1;P1;durP2;ratioP2;P2;SDS_P1;SDS_P2;PMS_P1;PMS_P2;Temp;Humidity;BMP_temperature;BMP_pressure;BME280_temperature;BME280_humidity;BME280_pressure;Samples;Min_cycle;Max_cycle;Signal;HPM_P1;HPM_P2
2021/12/29 00:01:35;;;;;;;96.03;90.00;;;9.00;99.90;;;;;;5033721;28;20352;-69
2021/12/29 00:04:01;;;;;;;103.88;96.38;;;9.00;99.90;;;;;;5020122;28;20440;-71
2021/12/29 00:06:28;;;;;;;2.63;2.43;;;9.00;99.90;;;;;;5033712;28;20233;-71
2021/12/29 00:08:55;;;;;;;3.37;3.07;;;9.00;99.90;;;;;;5026837;28;20449;-69
2021/12/29 00:11:22;;;;;;;4.10;3.70;;;9.00;99.90;;;;;;5027453;28;20822;-69
2021/12/29 00:13:50;;;;;;;2.70;2.53;;;9.00;99.90;;;;;;5029741;28;20937;-69
2021/12/29 00:16:17;;;;;;;3.10;2.63;;;9.00;99.90;;;;;;5026183;28;20256;-69
2021/12/29 00:18:44;;;;;;;2.97;2.70;;;9.00;99.90;;;;;;5034508;28;20583;-69
2021/12/29 00:21:11;;;;;;;3.20;2.90;;;9.00;99.90;;;;;;5027245;28;20772;-69
2021/12/29 00:23:38;;;;;;;3.47;2.93;;;9.00;99.90;;;;;;5026618;28;20561;-69
2021/12/29 00:26:05;;;;;;;2.70;2.50;;;9.00;99.90;;;;;;5031014;28;20449;-69
2021/12/29 00:28:31;;;;;;;6.27;3.60;;;9.00;99.90;;;;;;5045780;28;20771;-68
2021/12/29 00:30:59;;;;;;;5.20;3.47;;;9.00;99.90;;;;;;5028854;28;20492;-69
2021/12/29 00:33:26;;;;;;;4.47;2.73;;;9.00;99.90;;;;;;5025608;28;20543;-69
2021/12/29 00:35:53;;;;;;;2.93;2.67;;;9.00;99.90;;;;;;5026881;28;20432;-69
2021/12/29 00:38:20;;;;;;;3.90;2.97;;;9.00;99.90;;;;;;5032275;28;20453;-69
2021/12/29 00:40:46;;;;;;;4.53;2.57;;;8.90;99.90;;;;;;5028077;28;20449;-69
2021/12/29 00:43:13;;;;;;;5.07;3.80;;;8.90;99.90;;;;;;5033565;28;20481;-69
2021/12/29 00:45:41;;;;;;;2.60;2.40;;;8.90;99.90;;;;;;5026771;28;20457;-69
2021/12/29 00:48:13;;;;;;;3.10;2.63;;;8.90;99.90;;;;;;5026327;28;20532;-69
2021/12/29 00:50:40;;;;;;;2.47;2.27;;;8.90;99.90;;;;;;5026629;28;20516;-69
2021/12/29 00:53:08;;;;;;;3.40;2.60;;;8.90;99.90;;;;;;5038852;28;20534;-69
2021/12/29 00:55:35;;;;;;;3.10;2.30;;;8.90;99.90;;;;;;5039786;28;20535;-69
2021/12/29 00:58:02;;;;;;;3.10;2.80;;;8.90;99.90;;;;;;5017857;28;20462;-69
2021/12/29 01:00:29;;;;;;;77.97;70.53;;;8.90;99.90;;;;;;5029832;28;20833;-70
2021/12/29 01:02:56;;;;;;;4.17;3.30;;;8.90;99.90;;;;;;5028201;28;20288;-68
2021/12/29 01:05:24;;;;;;;4.03;3.13;;;8.90;99.90;;;;;;5032927;28;21054;-68
2021/12/29 01:07:50;;;;;;;95.90;80.68;;;8.90;99.90;;;;;;5026129;28;20465;-68
2021/12/29 01:10:18;;;;;;;4.97;3.17;;;8.90;99.90;;;;;;5030864;28;20758;-68
2021/12/29 01:12:52;;;;;;;1.77;1.67;;;9.00;99.90;;;;;;5026748;28;20502;-68
2021/12/29 01:15:24;;;;;;;3.45;2.38;;;9.00;99.90;;;;;;5031924;28;20556;-70
2021/12/29 01:17:51;;;;;;;7.60;3.33;;;9.00;99.90;;;;;;5026012;28;20453;-68
2021/12/29 01:20:19;;;;;;;2.70;2.33;;;9.00;99.90;;;;;;5028430;28;20522;-69
2021/12/29 01:22:47;;;;;;;2.70;2.50;;;9.00;99.90;;;;;;5026454;28;20477;-68
2021/12/29 01:25:15;;;;;;;3.40;2.10;;;9.00;99.90;;;;;;5027703;28;20481;-68
2021/12/29 01:27:42;;;;;;;2.93;2.60;;;9.00;99.90;;;;;;5026444;28;20461;-69
2021/12/29 01:30:10;;;;;;;4.50;3.53;;;9.10;99.90;;;;;;5026690;28;20568;-69
2021/12/29 01:32:37;;;;;;;2.30;2.10;;;9.00;99.90;;;;;;5030592;28;20512;-69
2021/12/29 01:35:05;;;;;;;5.73;3.03;;;9.10;99.90;;;;;;5031431;28;20868;-69
2021/12/29 01:37:31;;;;;;;2.30;2.20;;;9.10;99.90;;;;;;5032097;28;20899;-69
2021/12/29 01:39:59;;;;;;;19.93;17.47;;;9.10;99.90;;;;;;5028280;28;20437;-69
2021/12/29 01:42:26;;;;;;;136.02;121.90;;;9.10;99.90;;;;;;5026425;28;20554;-69
2021/12/29 01:44:53;;;;;;;100.07;92.50;;;9.10;99.90;;;;;;5028381;28;20199;-69
2021/12/29 01:47:25;;;;;;;131.88;120.10;;;9.20;99.90;;;;;;5025677;28;20457;-68
2021/12/29 01:49:52;;;;;;;166.70;123.28;;;9.20;99.90;;;;;;5025792;28;20754;-69
2021/12/29 01:52:23;;;;;;;140.98;125.90;;;9.20;99.90;;;;;;5025710;28;20222;-68
2021/12/29 01:54:50;;;;;;;137.02;123.35;;;9.20;99.90;;;;;;5034143;28;20574;-70
2021/12/29 01:57:18;;;;;;;143.85;122.95;;;9.10;99.90;;;;;;5026974;28;20211;-69
2021/12/29 01:59:45;;;;;;;164.13;129.60;;;9.10;99.90;;;;;;5033042;28;20209;-69
2021/12/29 02:02:14;;;;;;;150.13;127.55;;;9.10;99.90;;;;;;5026820;28;20222;-69
2021/12/29 02:04:41;;;;;;;169.63;127.13;;;9.10;99.90;;;;;;5025427;28;20202;-69
2021/12/29 02:07:08;;;;;;;210.27;123.97;;;9.10;99.90;;;;;;5025135;28;20280;-69
2021/12/29 02:09:36;;;;;;;220.20;120.15;;;9.10;99.90;;;;;;5030406;28;20574;-68
2021/12/29 02:12:04;;;;;;;151.52;124.90;;;9.10;99.90;;;;;;5041492;28;20230;-69
2021/12/29 02:14:33;;;;;;;181.45;123.28;;;9.10;99.90;;;;;;5031299;28;20210;-69
2021/12/29 02:17:01;;;;;;;158.13;128.40;;;9.10;99.90;;;;;;5015010;28;20277;-69
2021/12/29 02:19:28;;;;;;;147.15;125.57;;;9.10;99.90;;;;;;5024852;28;20206;-68
2021/12/29 02:22:03;;;;;;;155.60;130.95;;;9.10;99.90;;;;;;5034012;28;20218;-68
2021/12/29 02:24:38;;;;;;;164.13;129.02;;;9.10;99.90;;;;;;5031259;28;20267;-69
2021/12/29 02:27:06;;;;;;;205.48;130.73;;;9.10;99.90;;;;;;5029224;28;20279;-69
2021/12/29 02:29:34;;;;;;;3.07;2.77;;;9.20;99.90;;;;;;5024005;28;20249;-68
2021/12/29 02:32:01;;;;;;;1.73;1.63;;;9.20;99.90;;;;;;5025341;28;20899;-68
2021/12/29 02:34:27;;;;;;;2.78;2.28;;;9.20;99.90;;;;;;5025616;28;20489;-68
2021/12/29 02:36:58;;;;;;;4.37;2.33;;;9.30;99.90;;;;;;5026962;28;20203;-68
2021/12/29 02:39:25;;;;;;;4.37;2.73;;;9.30;99.90;;;;;;5028243;28;20838;-68
2021/12/29 02:41:54;;;;;;;2.00;1.90;;;9.30;99.90;;;;;;5039313;28;20469;-68
2021/12/29 02:44:25;;;;;;;3.70;3.28;;;9.30;99.90;;;;;;5025350;28;20456;-69
2021/12/29 02:46:54;;;;;;;1.73;1.60;;;9.30;99.90;;;;;;5025601;28;20234;-68
2021/12/29 02:49:21;;;;;;;3.50;3.20;;;9.30;99.90;;;;;;5028116;28;20530;-68
2021/12/29 02:51:48;;;;;;;5.93;4.10;;;9.30;99.90;;;;;;5029440;28;20492;-68
2021/12/29 02:54:17;;;;;;;3.90;3.50;;;9.30;99.90;;;;;;5027234;28;20531;-68
2021/12/29 02:56:44;;;;;;;7.40;3.20;;;9.30;99.90;;;;;;5031404;28;20455;-68
2021/12/29 02:59:11;;;;;;;4.13;3.40;;;9.40;99.90;;;;;;5013266;28;20515;-68
2021/12/29 03:01:37;;;;;;;4.57;3.33;;;9.30;99.90;;;;;;5032037;28;20516;-68
2021/12/29 03:04:06;;;;;;;3.43;3.20;;;9.40;99.90;;;;;;5021028;28;20799;-68
2021/12/29 03:06:34;;;;;;;4.03;3.47;;;9.40;99.90;;;;;;5036113;28;20719;-69
2021/12/29 03:09:01;;;;;;;3.43;3.13;;;9.40;99.90;;;;;;5036476;28;20444;-68
2021/12/29 03:11:29;;;;;;;3.03;2.67;;;9.40;99.90;;;;;;5037933;28;21554;-69
2021/12/29 03:13:55;;;;;;;3.10;2.47;;;9.40;99.90;;;;;;5037720;28;20448;-68
2021/12/29 03:16:22;;;;;;;3.17;2.87;;;9.40;99.90;;;;;;5034069;28;20511;-68
2021/12/29 03:18:49;;;;;;;3.37;2.53;;;9.40;99.90;;;;;;5039928;28;20537;-68
2021/12/29 03:21:15;;;;;;;5.87;3.67;;;9.40;99.90;;;;;;5041316;28;20957;-68
2021/12/29 03:23:43;;;;;;;4.07;3.67;;;9.40;99.90;;;;;;5022624;28;20696;-69
2021/12/29 03:26:10;;;;;;;3.10;2.90;;;9.30;99.90;;;;;;5031786;28;20504;-68
2021/12/29 03:28:39;;;;;;;3.60;3.30;;;9.30;99.90;;;;;;5035621;28;20538;-68
2021/12/29 03:31:10;;;;;;;3.08;2.25;;;9.30;99.90;;;;;;5027857;28;21002;-68
2021/12/29 03:33:37;;;;;;;3.97;3.57;;;9.40;99.90;;;;;;5029070;28;20226;-68
2021/12/29 03:36:05;;;;;;;2.63;2.43;;;9.30;99.90;;;;;;5030699;28;20583;-69
2021/12/29 03:38:36;;;;;;;2.47;2.27;;;9.30;99.90;;;;;;5037806;28;20458;-68
2021/12/29 03:41:06;;;;;;;3.13;2.83;;;9.30;99.90;;;;;;5023385;28;20450;-68
2021/12/29 03:43:34;;;;;;;3.37;3.07;;;9.30;99.90;;;;;;5022032;28;20571;-69
2021/12/29 03:46:03;;;;;;;3.50;2.87;;;9.20;99.90;;;;;;5028112;28;20499;-69
2021/12/29 03:48:31;;;;;;;4.00;3.60;;;9.20;99.90;;;;;;5028021;28;20449;-68
2021/12/29 03:50:59;;;;;;;3.40;2.47;;;9.20;99.90;;;;;;5036170;28;20481;-69
2021/12/29 03:53:28;;;;;;;3.77;3.47;;;9.20;99.90;;;;;;5038744;28;20580;-68
2021/12/29 03:55:55;;;;;;;2.97;2.67;;;9.30;99.90;;;;;;5023728;28;20823;-69
2021/12/29 03:58:24;;;;;;;3.00;2.70;;;9.30;99.90;;;;;;5020912;28;20873;-68
2021/12/29 04:00:54;;;;;;;4.07;3.70;;;9.20;99.90;;;;;;5031458;28;20441;-68
2021/12/29 04:03:22;;;;;;;3.40;2.73;;;9.20;99.90;;;;;;5025470;28;20535;-69
2021/12/29 04:05:49;;;;;;;4.43;3.20;;;9.20;99.90;;;;;;5022419;28;20883;-69
2021/12/29 04:08:16;;;;;;;2.60;2.40;;;9.20;99.90;;;;;;5021399;28;20829;-69
2021/12/29 04:10:44;;;;;;;3.70;2.77;;;9.10;99.90;;;;;;5025773;28;20554;-68
2021/12/29 04:13:10;;;;;;;2.50;2.30;;;9.10;99.90;;;;;;5027507;28;20473;-69
2021/12/29 04:15:38;;;;;;;3.30;3.00;;;9.00;99.90;;;;;;5035603;28;20460;-68
2021/12/29 04:18:15;;;;;;;3.37;3.07;;;9.00;99.90;;;;;;5030416;28;20977;-68
2021/12/29 04:20:57;;;;;;;2.47;2.10;;;9.00;99.90;;;;;;5032970;28;20787;-69
2021/12/29 04:23:25;;;;;;;9.13;6.00;;;8.90;99.90;;;;;;5026401;28;20226;-68
2021/12/29 04:25:54;;;;;;;3.33;2.40;;;8.80;99.90;;;;;;5025104;28;20280;-68
2021/12/29 04:28:23;;;;;;;4.53;3.63;;;8.80;99.90;;;;;;5026649;28;20537;-69
2021/12/29 04:30:52;;;;;;;4.33;2.40;;;8.80;99.90;;;;;;5028601;28;20276;-68
2021/12/29 04:33:20;;;;;;;2.92;2.40;;;8.80;99.90;;;;;;5014793;28;20475;-69
2021/12/29 04:35:48;;;;;;;3.08;2.85;;;8.70;99.90;;;;;;5026755;28;20207;-68
2021/12/29 04:38:16;;;;;;;5.13;4.63;;;8.70;99.90;;;;;;5025380;28;20207;-69
2021/12/29 04:40:43;;;;;;;3.28;3.00;;;8.70;99.90;;;;;;5034071;28;20517;-69
2021/12/29 04:43:10;;;;;;;4.63;3.35;;;8.70;99.90;;;;;;5027715;28;20242;-69
2021/12/29 04:45:37;;;;;;;3.45;3.03;;;8.70;99.90;;;;;;5026327;28;20225;-69
2021/12/29 04:48:11;;;;;;;3.80;3.45;;;8.70;99.90;;;;;;5026179;28;20257;-69
2021/12/29 04:50:39;;;;;;;3.92;3.10;;;8.60;99.90;;;;;;5021466;28;20219;-69
2021/12/29 04:53:09;;;;;;;4.15;3.75;;;8.60;99.90;;;;;;5024188;28;20557;-69
2021/12/29 04:55:38;;;;;;;3.15;2.78;;;8.60;99.90;;;;;;5033897;28;20272;-69
2021/12/29 04:58:05;;;;;;;5.03;4.50;;;8.60;99.90;;;;;;5032650;28;20226;-69
2021/12/29 05:00:33;;;;;;;6.35;4.35;;;8.60;99.90;;;;;;5037785;28;20447;-69
2021/12/29 05:03:00;;;;;;;4.03;3.60;;;8.60;99.90;;;;;;5025536;28;20234;-69
2021/12/29 05:05:41;;;;;;;3.67;3.38;;;8.50;99.90;;;;;;5026007;28;20460;-69
2021/12/29 05:08:27;;;;;;;4.43;4.03;;;8.50;99.90;;;;;;5015584;28;20233;-69
2021/12/29 05:10:56;;;;;;;4.05;3.25;;;8.50;99.90;;;;;;5028655;28;20237;-69
2021/12/29 05:13:23;;;;;;;4.43;3.28;;;8.50;99.90;;;;;;5032272;28;20235;-69
2021/12/29 05:15:50;;;;;;;3.55;3.25;;;8.50;99.90;;;;;;5023455;28;20218;-69
2021/12/29 05:18:17;;;;;;;4.15;3.75;;;8.50;99.90;;;;;;5017745;28;20214;-69
2021/12/29 05:20:44;;;;;;;3.97;3.58;;;8.50;99.90;;;;;;5038353;28;20599;-69
2021/12/29 05:23:11;;;;;;;6.00;4.10;;;8.50;99.90;;;;;;5038071;28;20256;-69
2021/12/29 05:25:38;;;;;;;7.13;3.70;;;8.60;99.90;;;;;;5025239;28;20203;-69
2021/12/29 05:28:05;;;;;;;3.53;3.33;;;8.60;99.90;;;;;;5024338;28;20266;-69
2021/12/29 05:30:32;;;;;;;4.00;3.57;;;8.60;99.90;;;;;;5031841;28;20197;-69
2021/12/29 05:32:58;;;;;;;3.90;3.57;;;8.60;99.90;;;;;;5016163;28;21055;-69
2021/12/29 05:35:25;;;;;;;6.87;3.90;;;8.60;99.90;;;;;;5029718;28;20924;-70
2021/12/29 05:37:52;;;;;;;4.20;3.80;;;8.60;99.90;;;;;;5026161;28;20991;-69
2021/12/29 05:40:20;;;;;;;4.73;3.90;;;8.60;99.90;;;;;;5025016;28;20449;-69
2021/12/29 05:42:46;;;;;;;5.20;4.63;;;8.60;99.90;;;;;;5025491;28;20839;-69
2021/12/29 05:45:14;;;;;;;5.07;4.15;;;8.50;99.90;;;;;;5026552;28;20452;-69
2021/12/29 05:47:42;;;;;;;4.60;4.10;;;8.50;99.90;;;;;;5033636;28;20637;-69
2021/12/29 05:50:12;;;;;;;4.90;4.45;;;8.50;99.90;;;;;;5030927;28;20206;-69
2021/12/29 05:52:38;;;;;;;5.50;5.00;;;8.50;99.90;;;;;;5024281;28;20234;-69
2021/12/29 05:55:07;;;;;;;4.80;4.38;;;8.50;99.90;;;;;;5025021;28;20413;-71
2021/12/29 05:57:35;;;;;;;6.50;3.77;;;8.50;99.90;;;;;;5025540;28;20706;-69
2021/12/29 06:00:03;;;;;;;6.30;4.63;;;8.50;99.90;;;;;;5026731;28;20446;-69
2021/12/29 06:02:29;;;;;;;5.07;4.55;;;8.50;99.90;;;;;;5028840;28;21031;-69
2021/12/29 06:04:56;;;;;;;7.63;5.45;;;8.50;99.90;;;;;;5036203;28;20300;-69
2021/12/29 06:07:22;;;;;;;7.03;5.30;;;8.40;99.90;;;;;;5032335;28;20304;-69
2021/12/29 06:09:49;;;;;;;5.47;4.40;;;8.50;99.90;;;;;;5033903;28;20202;-69
2021/12/29 06:12:16;;;;;;;5.57;3.87;;;8.40;99.90;;;;;;5034875;28;20536;-69
2021/12/29 06:14:44;;;;;;;8.55;6.28;;;8.40;99.90;;;;;;5033283;28;20941;-69
2021/12/29 06:17:11;;;;;;;5.80;5.22;;;8.40;99.90;;;;;;5028933;28;20888;-69
2021/12/29 06:19:38;;;;;;;4.97;4.47;;;8.40;99.90;;;;;;5027585;28;20255;-68
2021/12/29 06:22:08;;;;;;;13.45;5.50;;;8.40;99.90;;;;;;5024754;28;20226;-68
2021/12/29 06:24:35;;;;;;;7.38;5.03;;;8.50;99.90;;;;;;5024959;28;20202;-68
2021/12/29 06:27:02;;;;;;;5.05;4.60;;;8.50;99.90;;;;;;5024986;28;20245;-69
2021/12/29 06:29:28;;;;;;;5.97;4.80;;;8.50;99.90;;;;;;5030511;28;20206;-68
2021/12/29 06:31:56;;;;;;;5.15;4.65;;;8.50;99.90;;;;;;5029710;28;20924;-68
2021/12/29 06:34:23;;;;;;;5.13;4.68;;;8.50;99.90;;;;;;5027099;28;20194;-68
2021/12/29 06:36:50;;;;;;;8.07;5.28;;;8.50;99.90;;;;;;5029495;28;20280;-70
2021/12/29 06:39:17;;;;;;;6.93;5.43;;;8.50;99.90;;;;;;5019844;28;20211;-71
2021/12/29 06:41:44;;;;;;;6.60;5.40;;;8.50;99.90;;;;;;5024166;28;20870;-70
2021/12/29 06:44:11;;;;;;;5.70;5.20;;;8.50;99.90;;;;;;5026893;28;20672;-70
2021/12/29 06:46:38;;;;;;;8.45;4.90;;;8.50;99.90;;;;;;5038889;28;20282;-70
2021/12/29 06:49:06;;;;;;;6.05;3.63;;;8.50;99.90;;;;;;5029619;28;20211;-70
2021/12/29 06:51:33;;;;;;;5.10;4.20;;;8.50;99.90;;;;;;5014123;28;20776;-70
2021/12/29 06:53:59;;;;;;;7.35;6.35;;;8.50;99.90;;;;;;5033648;28;20221;-70
2021/12/29 06:56:26;;;;;;;6.10;5.30;;;8.50;99.90;;;;;;5031281;28;20269;-70
2021/12/29 06:58:53;;;;;;;7.37;5.73;;;8.50;99.90;;;;;;5028629;28;20203;-70
2021/12/29 07:01:19;;;;;;;7.72;5.35;;;8.50;99.90;;;;;;5034855;28;20453;-71
2021/12/29 07:03:46;;;;;;;6.47;4.03;;;8.50;99.90;;;;;;5027261;28;20292;-69
2021/12/29 07:06:14;;;;;;;8.38;4.40;;;8.50;99.90;;;;;;5037334;28;20265;-71
2021/12/29 07:08:41;;;;;;;4.47;3.67;;;8.50;99.90;;;;;;5027237;28;20210;-71
2021/12/29 07:11:08;;;;;;;5.60;4.80;;;8.50;99.90;;;;;;5034934;28;20249;-72
2021/12/29 07:13:34;;;;;;;6.32;4.18;;;8.60;99.90;;;;;;5018513;28;20547;-70
2021/12/29 07:16:01;;;;;;;4.10;3.70;;;8.60;99.90;;;;;;5028652;28;20492;-70
2021/12/29 07:18:28;;;;;;;5.72;5.03;;;8.60;99.90;;;;;;5036457;28;20263;-72
2021/12/29 07:20:54;;;;;;;4.13;2.85;;;8.60;99.90;;;;;;5038388;28;20319;-69
2021/12/29 07:23:22;;;;;;;10.15;5.13;;;8.60;99.90;;;;;;5039251;28;20303;-69
2021/12/29 07:25:49;;;;;;;10.73;3.90;;;8.60;99.90;;;;;;5040093;28;20206;-71
2021/12/29 07:28:16;;;;;;;5.85;4.03;;;8.60;99.90;;;;;;5033663;28;20453;-70
2021/12/29 07:30:42;;;;;;;4.28;3.70;;;8.60;99.90;;;;;;5027161;28;20210;-69
2021/12/29 07:33:09;;;;;;;4.88;3.92;;;8.70;99.90;;;;;;5026256;28;20577;-69
2021/12/29 07:35:36;;;;;;;4.78;3.88;;;8.70;99.90;;;;;;5023636;28;20210;-68
2021/12/29 07:38:03;;;;;;;3.50;3.20;;;8.70;99.90;;;;;;5039007;28;20202;-69
2021/12/29 07:40:31;;;;;;;3.37;2.87;;;8.70;99.90;;;;;;5036706;28;20739;-69
2021/12/29 07:42:58;;;;;;;4.28;3.88;;;8.70;99.90;;;;;;5034472;28;20468;-69
2021/12/29 07:45:26;;;;;;;2.83;2.40;;;8.70;99.90;;;;;;5036866;28;20206;-69
2021/12/29 07:47:52;;;;;;;3.20;2.90;;;8.80;99.90;;;;;;5028032;28;20769;-69
2021/12/29 07:50:20;;;;;;;5.88;3.28;;;8.80;99.90;;;;;;5029066;28;20550;-71
2021/12/29 07:52:48;;;;;;;3.83;3.07;;;8.80;99.90;;;;;;5032399;28;20599;-70
2021/12/29 07:55:15;;;;;;;3.70;3.40;;;8.90;99.90;;;;;;5029267;28;20463;-71
2021/12/29 07:57:43;;;;;;;2.80;2.60;;;8.90;99.90;;;;;;5034354;28;20629;-70
2021/12/29 08:00:11;;;;;;;2.90;2.70;;;8.90;99.90;;;;;;5035496;28;20456;-71
2021/12/29 08:02:39;;;;;;;3.00;2.70;;;8.90;99.90;;;;;;5033019;28;20553;-70
2021/12/29 08:05:06;;;;;;;5.40;3.67;;;8.90;99.90;;;;;;5028496;28;20428;-70
2021/12/29 08:07:32;;;;;;;5.80;3.17;;;8.90;99.90;;;;;;5028971;28;20496;-69
2021/12/29 08:10:00;;;;;;;2.63;2.43;;;9.00;99.90;;;;;;5031918;28;20516;-70
2021/12/29 08:12:27;;;;;;;4.37;2.40;;;9.00;99.90;;;;;;5029028;28;20559;-70
2021/12/29 08:14:55;;;;;;;2.23;2.03;;;9.00;99.90;;;;;;5026414;28;20557;-70
2021/12/29 08:17:21;;;;;;;2.80;2.07;;;9.00;99.90;;;;;;5022720;28;20436;-69
2021/12/29 08:19:50;;;;;;;3.10;2.80;;;9.00;99.90;;;;;;5021117;28;20454;-69
2021/12/29 08:22:17;;;;;;;2.57;2.30;;;9.00;99.90;;;;;;5011286;28;20532;-69
2021/12/29 08:24:44;;;;;;;4.57;2.50;;;9.00;99.90;;;;;;5026812;28;20461;-71
2021/12/29 08:27:11;;;;;;;3.25;2.70;;;9.10;99.90;;;;;;5026898;28;20460;-71
2021/12/29 08:29:38;;;;;;;11.13;3.20;;;9.10;99.90;;;;;;5038700;28;20244;-69
2021/12/29 08:32:06;;;;;;;2.63;2.10;;;9.10;99.90;;;;;;5026354;28;20541;-69
2021/12/29 08:34:33;;;;;;;1.50;1.40;;;9.10;99.90;;;;;;5026783;28;20432;-70
2021/12/29 08:37:00;;;;;;;1.70;1.60;;;9.10;99.90;;;;;;5026831;28;20453;-69
2021/12/29 08:39:26;;;;;;;4.10;2.93;;;9.20;99.90;;;;;;5026909;28;20472;-69
2021/12/29 08:41:53;;;;;;;3.40;2.30;;;9.30;99.90;;;;;;5024478;28;21012;-69
2021/12/29 08:44:20;;;;;;;3.03;2.33;;;9.20;99.90;;;;;;5026239;28;20949;-71
2021/12/29 08:46:48;;;;;;;4.13;2.63;;;9.30;99.90;;;;;;5026470;28;20428;-71
2021/12/29 08:49:16;;;;;;;3.73;2.80;;;9.30;99.90;;;;;;5018676;28;20616;-71
2021/12/29 08:51:43;;;;;;;2.10;1.90;;;9.30;99.90;;;;;;5021559;28;20878;-71
2021/12/29 08:54:10;;;;;;;4.27;2.40;;;9.30;99.90;;;;;;5026032;28;20912;-69
2021/12/29 08:56:37;;;;;;;4.93;2.83;;;9.30;99.90;;;;;;5028201;28;20431;-69
2021/12/29 08:59:05;;;;;;;2.30;2.03;;;9.30;99.90;;;;;;5030326;28;20951;-70
2021/12/29 09:01:32;;;;;;;2.10;2.00;;;9.40;99.90;;;;;;5021709;28;20526;-70
2021/12/29 09:03:58;;;;;;;2.63;2.43;;;9.30;99.90;;;;;;5023421;28;20420;-69
2021/12/29 09:06:26;;;;;;;4.17;3.00;;;9.40;99.90;;;;;;5025704;28;20506;-70
2021/12/29 09:08:54;;;;;;;2.77;2.57;;;9.40;99.90;;;;;;5024700;28;20534;-70
2021/12/29 09:11:21;;;;;;;3.97;2.60;;;9.40;99.90;;;;;;5023815;28;20464;-69
2021/12/29 09:13:48;;;;;;;2.87;2.63;;;9.40;99.90;;;;;;5017592;28;20493;-70
2021/12/29 09:16:14;;;;;;;6.60;3.37;;;9.40;99.90;;;;;;5019425;28;20466;-70
2021/12/29 09:18:41;;;;;;;2.60;2.33;;;9.50;99.90;;;;;;5010821;28;20830;-69
2021/12/29 09:21:13;;;;;;;2.30;2.10;;;9.50;99.90;;;;;;5025572;28;20554;-69
2021/12/29 09:23:42;;;;;;;2.70;2.50;;;9.50;99.90;;;;;;5025568;28;21006;-69
2021/12/29 09:26:11;;;;;;;2.03;1.93;;;9.50;99.90;;;;;;5026165;28;20453;-69
2021/12/29 09:28:39;;;;;;;2.37;1.90;;;9.60;99.90;;;;;;5012846;28;20540;-70
2021/12/29 09:31:06;;;;;;;6.30;2.40;;;9.60;99.90;;;;;;5013029;28;20890;-69
2021/12/29 09:33:33;;;;;;;2.17;1.97;;;9.60;99.90;;;;;;5031742;28;20592;-72
2021/12/29 09:36:02;;;;;;;2.17;1.97;;;9.60;99.90;;;;;;5032963;28;20524;-72
2021/12/29 09:38:31;;;;;;;3.90;2.50;;;9.70;99.90;;;;;;5029456;28;20434;-73
2021/12/29 09:41:00;;;;;;;3.60;1.87;;;9.90;99.90;;;;;;5028610;28;20481;-72
2021/12/29 09:43:27;;;;;;;4.73;1.90;;;10.00;99.90;;;;;;5026953;28;20486;-70
2021/12/29 09:45:54;;;;;;;2.63;2.43;;;10.00;99.90;;;;;;5024282;28;20909;-70
2021/12/29 09:48:21;;;;;;;4.00;2.60;;;10.00;99.90;;;;;;5019038;28;20457;-70
2021/12/29 09:50:49;;;;;;;2.27;2.10;;;10.00;99.90;;;;;;5038269;28;20477;-71
2021/12/29 09:53:21;;;;;;;5.33;2.40;;;10.00;99.90;;;;;;5024627;28;20516;-70
2021/12/29 09:55:47;;;;;;;2.27;2.10;;;10.00;99.90;;;;;;5024851;28;20812;-70
2021/12/29 09:58:18;;;;;;;4.87;2.40;;;10.00;99.90;;;;;;5024917;28;21022;-70
2021/12/29 10:00:47;;;;;;;2.50;2.20;;;9.90;99.90;;;;;;5025701;28;20601;-70
2021/12/29 10:03:17;;;;;;;7.30;3.00;;;9.90;99.90;;;;;;5025429;28;21035;-70
2021/12/29 10:05:45;;;;;;;3.30;3.00;;;9.90;99.90;;;;;;5026578;28;20424;-70
2021/12/29 10:08:14;;;;;;;2.60;2.40;;;9.90;99.90;;;;;;5029244;28;20549;-69
2021/12/29 10:10:43;;;;;;;2.93;2.70;;;9.90;99.90;;;;;;5024536;28;20542;-70
2021/12/29 10:13:10;;;;;;;2.63;2.37;;;9.90;99.90;;;;;;5015680;28;20578;-70
2021/12/29 10:15:40;;;;;;;2.70;2.50;;;9.90;99.90;;;;;;5024521;28;20461;-70
2021/12/29 10:18:09;;;;;;;2.67;2.47;;;10.00;99.90;;;;;;5023856;28;20946;-69
2021/12/29 10:20:45;;;;;;;2.80;2.60;;;10.00;99.90;;;;;;5027318;28;20431;-70
2021/12/29 10:23:19;;;;;;;3.03;2.83;;;10.00;99.90;;;;;;5035478;28;20467;-69
2021/12/29 10:25:46;;;;;;;3.03;2.73;;;10.10;99.90;;;;;;5031942;28;20470;-70
2021/12/29 10:28:21;;;;;;;3.13;2.83;;;10.20;99.90;;;;;;5029107;28;20436;-70
2021/12/29 10:30:59;;;;;;;3.30;2.30;;;10.30;99.90;;;;;;5029163;28;20431;-71
2021/12/29 10:33:30;;;;;;;2.90;2.57;;;10.40;99.90;;;;;;5029047;28;20978;-70
2021/12/29 10:35:57;;;;;;;4.27;3.00;;;10.50;99.90;;;;;;5037763;28;20504;-70
2021/12/29 10:38:26;;;;;;;3.50;2.90;;;10.60;99.90;;;;;;5035219;28;20431;-70
2021/12/29 10:41:01;;;;;;;3.40;3.10;;;10.60;99.90;;;;;;5040636;28;20505;-70
2021/12/29 10:43:28;;;;;;;3.83;2.50;;;10.60;99.90;;;;;;5020015;28;20568;-70
2021/12/29 10:45:57;;;;;;;2.70;2.50;;;10.60;99.90;;;;;;5035087;28;20906;-70
2021/12/29 10:48:26;;;;;;;2.83;2.63;;;10.70;99.90;;;;;;5025532;28;20459;-70
2021/12/29 10:50:55;;;;;;;3.27;3.00;;;10.70;99.90;;;;;;5023277;28;21016;-69
2021/12/29 10:53:23;;;;;;;2.77;2.57;;;10.70;99.90;;;;;;5017211;28;20464;-69
2021/12/29 10:55:50;;;;;;;3.70;3.30;;;10.80;99.90;;;;;;5028507;28;20519;-69
2021/12/29 10:58:20;;;;;;;3.63;3.20;;;10.80;99.90;;;;;;5029110;28;20500;-70
2021/12/29 11:00:50;;;;;;;4.17;3.73;;;10.80;99.90;;;;;;5026463;28;20482;-70
2021/12/29 11:03:20;;;;;;;3.30;3.00;;;10.70;99.90;;;;;;5026995;28;20440;-68
2021/12/29 11:05:58;;;;;;;3.13;2.83;;;10.70;99.90;;;;;;5026724;28;20486;-71
2021/12/29 11:08:26;;;;;;;12.13;3.00;;;10.80;99.90;;;;;;5042088;28;20448;-69
2021/12/29 11:10:56;;;;;;;3.00;2.70;;;10.90;99.90;;;;;;5028737;28;20437;-69
2021/12/29 11:13:26;;;;;;;4.90;3.30;;;11.00;99.90;;;;;;5027365;28;20572;-69
2021/12/29 11:15:56;;;;;;;3.00;2.80;;;11.10;99.90;;;;;;5028654;28;20428;-69
2021/12/29 11:18:24;;;;;;;3.20;2.90;;;11.20;99.90;;;;;;5032503;28;20434;-69
2021/12/29 11:20:54;;;;;;;2.50;2.23;;;11.30;99.90;;;;;;5039054;28;20555;-69
2021/12/29 11:23:21;;;;;;;3.33;2.50;;;11.40;99.90;;;;;;5030153;28;20436;-69
2021/12/29 11:25:49;;;;;;;2.40;2.00;;;11.60;99.90;;;;;;5028485;28;20825;-69
2021/12/29 11:28:21;;;;;;;2.77;2.57;;;11.60;99.90;;;;;;5017867;28;20481;-69
2021/12/29 11:30:48;;;;;;;2.53;2.03;;;11.70;99.90;;;;;;5028266;28;20444;-69
2021/12/29 11:33:15;;;;;;;2.00;1.50;;;11.90;99.90;;;;;;5032908;28;20518;-69
2021/12/29 11:35:44;;;;;;;1.77;1.60;;;12.00;99.90;;;;;;5036872;28;20457;-71
2021/12/29 11:38:12;;;;;;;3.07;2.13;;;12.00;99.90;;;;;;5028345;28;20481;-71
2021/12/29 11:40:41;;;;;;;1.63;1.53;;;12.00;99.90;;;;;;5028238;28;20445;-69
2021/12/29 11:43:08;;;;;;;1.70;1.60;;;12.00;99.90;;;;;;5028279;28;20863;-69
2021/12/29 11:45:36;;;;;;;1.43;1.33;;;12.00;99.90;;;;;;5028046;28;20428;-70
2021/12/29 11:48:03;;;;;;;1.60;1.50;;;12.00;99.90;;;;;;5031395;28;20427;-70
2021/12/29 11:50:33;;;;;;;1.73;1.20;;;12.00;99.90;;;;;;5026579;28;20715;-69
2021/12/29 11:53:09;;;;;;;1.37;1.10;;;12.00;99.90;;;;;;5024373;28;20486;-70
2021/12/29 11:55:42;;;;;;;1.30;1.20;;;12.00;99.90;;;;;;5025623;28;20459;-71
2021/12/29 11:58:13;;;;;;;1.73;1.63;;;11.90;99.90;;;;;;5026106;28;20520;-70
2021/12/29 12:00:40;;;;;;;3.60;1.00;;;11.90;99.90;;;;;;5033951;28;20424;-71
2021/12/29 12:03:11;;;;;;;2.20;1.13;;;11.80;99.90;;;;;;5030387;28;20489;-71
2021/12/29 12:05:40;;;;;;;1.73;1.00;;;11.80;99.90;;;;;;5029929;28;20440;-72
2021/12/29 12:08:11;;;;;;;1.30;1.10;;;11.80;99.90;;;;;;5026517;28;20486;-70
2021/12/29 12:10:40;;;;;;;1.33;1.23;;;11.70;99.90;;;;;;5033312;28;20794;-70
2021/12/29 12:13:21;;;;;;;1.23;0.90;;;11.60;99.90;;;;;;5028004;28;20520;-71
2021/12/29 12:15:48;;;;;;;0.80;0.70;;;11.50;99.90;;;;;;5028701;28;20453;-70
2021/12/29 12:18:15;;;;;;;5.80;1.50;;;11.50;99.90;;;;;;5029921;28;20436;-71
2021/12/29 12:20:43;;;;;;;1.10;1.00;;;11.50;99.90;;;;;;5029523;28;20451;-71
2021/12/29 12:23:22;;;;;;;0.90;0.80;;;11.40;99.90;;;;;;5026011;28;20550;-70
2021/12/29 12:25:49;;;;;;;0.90;0.77;;;11.30;99.90;;;;;;5024568;28;20453;-70
2021/12/29 12:28:16;;;;;;;0.93;0.70;;;11.30;99.90;;;;;;5026865;28;20523;-70
2021/12/29 12:30:46;;;;;;;3.10;1.23;;;11.30;99.90;;;;;;5023930;28;20451;-70
2021/12/29 12:33:14;;;;;;;0.90;0.70;;;11.20;99.90;;;;;;5025206;28;20600;-72
2021/12/29 12:35:43;;;;;;;0.60;0.60;;;11.20;99.90;;;;;;5025790;28;20436;-70
2021/12/29 12:38:21;;;;;;;2.63;1.07;;;11.20;99.90;;;;;;5025858;28;20497;-71
2021/12/29 12:41:00;;;;;;;2.83;1.00;;;11.10;99.90;;;;;;5025079;28;20449;-72
2021/12/29 12:43:27;;;;;;;0.70;0.60;;;11.10;99.90;;;;;;5022901;28;20570;-70
2021/12/29 12:45:54;;;;;;;0.70;0.70;;;11.10;99.90;;;;;;5027026;28;20449;-69
2021/12/29 12:48:25;;;;;;;0.60;0.57;;;11.10;99.90;;;;;;5029050;28;20498;-71
2021/12/29 12:50:51;;;;;;;1.37;0.90;;;11.10;99.90;;;;;;5028092;28;20641;-71
2021/12/29 12:53:29;;;;;;;1.03;0.80;;;11.00;99.90;;;;;;5024043;28;21062;-71
2021/12/29 12:55:56;;;;;;;0.97;0.80;;;11.00;99.90;;;;;;5029248;28;20423;-72
2021/12/29 12:58:25;;;;;;;0.87;0.87;;;10.90;99.90;;;;;;5023803;28;20449;-73